Time;durP1;ratioP1;P1;durP2;ratioP2;P2;SDS_P1;SDS_P2;PMS_P1;PMS_P2;Temp;Humidity;BMP_temperature;BMP_pressure;BME280_temperature;BME280_humidity;BME280_pressure;Samples;Min_cycle;Max_cycle;Signal;HPM_P1;HPM_P2
2022/05/24 00:00:36;;;;;;;0.70;0.60;;;;;;;;;;5054485;28;20530;-72
2022/05/24 00:03:03;;;;;;;0.70;0.70;;;;;;;;;;5070851;28;20931;-74
2022/05/24 00:05:32;;;;;;;0.70;0.60;;;;;;;;;;5072444;28;20422;-74
2022/05/24 00:07:59;;;;;;;0.70;0.70;;;;;;;;;;5053166;28;20545;-73
2022/05/24 00:10:36;;;;;;;0.70;0.70;;;;;;;;;;5052052;28;20442;-74
2022/05/24 00:13:04;;;;;;;0.70;0.60;;;;;;;;;;5070431;28;20443;-73
2022/05/24 00:15:32;;;;;;;0.87;0.87;;;;;;;;;;5073906;28;20812;-74
2022/05/24 00:18:00;;;;;;;0.80;0.80;;;;;;;;;;5053136;28;20475;-72
2022/05/24 00:20:28;;;;;;;0.90;0.90;;;;;;;;;;5072374;28;20764;-74
2022/05/24 00:22:55;;;;;;;0.80;0.70;;;;;;;;;;5056045;28;20765;-73
2022/05/24 00:25:22;;;;;;;0.70;0.70;;;;;;;;;;5073465;28;20757;-73
2022/05/24 00:27:50;;;;;;;0.70;0.63;;;;;;;;;;5072147;28;20486;-73
2022/05/24 00:30:19;;;;;;;0.70;0.70;;;;;;;;;;5064923;28;20507;-73
2022/05/24 00:32:46;;;;;;;0.60;0.60;;;;;;;;;;5051705;28;20478;-74
2022/05/24 00:35:14;;;;;;;0.70;0.70;;;;;;;;;;5052320;28;20534;-74
2022/05/24 00:37:42;;;;;;;0.83;0.83;;;;;;;;;;5056625;28;20464;-73
2022/05/24 00:40:11;;;;;;;0.70;0.60;;;;;;;;;;5036008;28;20472;-73
2022/05/24 00:42:38;;;;;;;0.70;0.70;;;;;;;;;;5065072;28;20484;-74
2022/05/24 00:45:07;;;;;;;0.80;0.80;;;;;;;;;;5062408;28;20436;-73
2022/05/24 00:47:39;;;;;;;1.13;0.90;;;;;;;;;;5066570;28;20436;-73
2022/05/24 00:50:08;;;;;;;0.83;0.80;;;;;;;;;;5066178;28;21034;-73
2022/05/24 00:52:42;;;;;;;0.70;0.70;;;;;;;;;;5052557;28;21109;-73
2022/05/24 00:55:12;;;;;;;0.70;0.70;;;;;;;;;;5052126;28;20506;-74
2022/05/24 00:57:44;;;;;;;0.70;0.70;;;;;;;;;;5052858;28;20412;-74
2022/05/24 01:00:18;;;;;;;0.70;0.60;;;;;;;;;;5059454;28;20532;-76
2022/05/24 01:02:50;;;;;;;0.70;0.60;;;;;;;;;;5052453;28;20414;-76
2022/05/24 01:05:19;;;;;;;0.70;0.70;;;;;;;;;;5035055;28;20437;-76
2022/05/24 01:07:48;;;;;;;0.70;0.70;;;;;;;;;;5035265;28;20484;-75
2022/05/24 01:10:21;;;;;;;0.70;0.70;;;;;;;;;;5042522;28;20446;-74
2022/05/24 01:12:53;;;;;;;0.70;0.70;;;;;;;;;;5038845;28;20485;-75
2022/05/24 01:15:22;;;;;;;0.80;0.80;;;;;;;;;;5051565;28;20961;-74
2022/05/24 01:17:55;;;;;;;2.20;1.20;;;;;;;;;;5051591;28;20506;-74
2022/05/24 01:20:23;;;;;;;0.70;0.70;;;;;;;;;;5066553;28;20833;-76
2022/05/24 01:23:02;;;;;;;0.90;0.90;;;;;;;;;;5073994;28;20794;-74
2022/05/24 01:25:36;;;;;;;0.70;0.70;;;;;;;;;;5055320;28;20453;-74
2022/05/24 01:28:11;;;;;;;0.70;0.60;;;;;;;;;;5055354;28;20429;-76
2022/05/24 01:30:42;;;;;;;0.80;0.80;;;;;;;;;;5063510;28;20455;-75
2022/05/24 01:36:10;;;;;;;0.70;0.70;;;;;;;;;;5071328;28;20549;-75
2022/05/24 01:38:41;;;;;;;0.70;0.60;;;;;;;;;;5054972;28;20473;-75
2022/05/24 01:41:11;;;;;;;1.17;1.07;;;;;;;;;;5059673;28;20994;-74
2022/05/24 01:43:43;;;;;;;0.70;0.60;;;;;;;;;;5054701;28;20443;-75
2022/05/24 01:46:13;;;;;;;0.70;0.60;;;;;;;;;;5038489;28;20447;-77
2022/05/24 01:48:42;;;;;;;0.70;0.60;;;;;;;;;;5054907;28;20521;-75
2022/05/24 01:51:12;;;;;;;0.70;0.60;;;;;;;;;;5038156;28;20500;-76
2022/05/24 01:53:42;;;;;;;0.70;0.70;;;;;;;;;;5054689;28;20421;-75
2022/05/24 01:56:36;;;;;;;0.73;0.73;;;;;;;;;;5040596;28;20942;-74
2022/05/24 01:59:04;;;;;;;0.70;0.60;;;;;;;;;;5055864;28;20468;-75
2022/05/24 02:01:37;;;;;;;0.90;0.90;;;;;;;;;;5038160;28;20940;-75
2022/05/24 02:04:06;;;;;;;0.63;0.60;;;;;;;;;;5037982;28;20446;-75
2022/05/24 02:06:33;;;;;;;0.67;0.60;;;;;;;;;;5054029;28;20470;-74
2022/05/24 02:09:01;;;;;;;0.70;0.70;;;;;;;;;;5065829;28;20532;-74
2022/05/24 02:11:29;;;;;;;0.80;0.80;;;;;;;;;;5075670;28;20525;-78
2022/05/24 02:13:58;;;;;;;0.70;0.60;;;;;;;;;;5075938;28;20443;-75
2022/05/24 02:16:28;;;;;;;0.73;0.70;;;;;;;;;;5073507;28;20433;-77
2022/05/24 02:18:57;;;;;;;0.80;0.80;;;;;;;;;;5062608;28;20552;-75
2022/05/24 02:21:25;;;;;;;0.90;0.90;;;;;;;;;;5057211;28;20497;-76
2022/05/24 02:23:52;;;;;;;0.70;0.70;;;;;;;;;;5057305;28;20536;-75
2022/05/24 02:26:21;;;;;;;0.70;0.70;;;;;;;;;;5071323;28;20490;-74
2022/05/24 02:28:49;;;;;;;0.70;0.60;;;;;;;;;;5049271;28;20436;-75
2022/05/24 02:31:19;;;;;;;0.70;0.60;;;;;;;;;;5053821;28;20521;-75
2022/05/24 02:33:48;;;;;;;0.70;0.60;;;;;;;;;;5054827;28;20448;-76
2022/05/24 02:36:15;;;;;;;0.70;0.70;;;;;;;;;;5054849;28;20456;-75
2022/05/24 02:38:42;;;;;;;0.70;0.70;;;;;;;;;;5053176;28;20472;-76
2022/05/24 02:43:55;;;;;;;0.70;0.60;;;;;;;;;;5074757;28;20470;-75
2022/05/24 02:46:22;;;;;;;1.27;1.17;;;;;;;;;;5056243;28;20998;-76
2022/05/24 02:48:51;;;;;;;0.70;0.70;;;;;;;;;;5057197;28;20446;-76
2022/05/24 02:51:20;;;;;;;0.70;0.70;;;;;;;;;;5056898;28;20503;-76
2022/05/24 02:53:49;;;;;;;2.10;1.90;;;;;;;;;;5074862;28;20410;-75
2022/05/24 02:56:16;;;;;;;1.13;1.07;;;;;;;;;;5072858;28;20452;-76
2022/05/24 02:58:43;;;;;;;1.83;1.70;;;;;;;;;;5039503;28;20464;-76
2022/05/24 03:01:11;;;;;;;1.33;1.20;;;;;;;;;;5063917;28;20443;-76
2022/05/24 03:03:38;;;;;;;0.70;0.70;;;;;;;;;;5073455;28;20496;-77
2022/05/24 03:06:08;;;;;;;3.43;3.23;;;;;;;;;;5056472;28;20564;-76
2022/05/24 03:11:21;;;;;;;1.23;0.83;;;;;;;;;;5054587;28;20472;-77
2022/05/24 03:16:34;;;;;;;0.83;0.83;;;;;;;;;;5056428;28;21022;-76
2022/05/24 03:19:01;;;;;;;2.17;2.07;;;;;;;;;;5056567;28;20473;-76
2022/05/24 03:21:29;;;;;;;0.70;0.63;;;;;;;;;;5058152;28;20511;-77
2022/05/24 03:23:56;;;;;;;1.50;1.40;;;;;;;;;;5072698;28;20432;-75
2022/05/24 03:26:23;;;;;;;0.90;0.90;;;;;;;;;;5055405;28;20537;-76
2022/05/24 03:28:57;;;;;;;1.33;1.23;;;;;;;;;;5038760;28;20459;-76
2022/05/24 03:31:25;;;;;;;0.97;0.93;;;;;;;;;;5055241;28;20469;-75
2022/05/24 03:33:53;;;;;;;2.60;2.00;;;;;;;;;;5052687;28;20441;-76
2022/05/24 03:36:20;;;;;;;0.80;0.70;;;;;;;;;;5052752;28;20456;-76
2022/05/24 03:38:49;;;;;;;0.90;0.90;;;;;;;;;;5052965;28;20456;-76
2022/05/24 03:41:17;;;;;;;0.70;0.70;;;;;;;;;;5055824;28;20948;-76
2022/05/24 03:43:44;;;;;;;0.90;0.80;;;;;;;;;;5069624;28;20442;-77
2022/05/24 03:46:11;;;;;;;0.80;0.80;;;;;;;;;;5055212;28;20528;-77
2022/05/24 03:48:39;;;;;;;1.20;1.10;;;;;;;;;;5055732;28;20985;-76
2022/05/24 03:51:06;;;;;;;0.73;0.70;;;;;;;;;;5072435;28;20472;-76
2022/05/24 03:53:33;;;;;;;0.70;0.70;;;;;;;;;;5055959;28;20457;-75
2022/05/24 03:56:01;;;;;;;0.70;0.70;;;;;;;;;;5054970;28;20925;-76
2022/05/24 03:58:29;;;;;;;19.07;2.07;;;;;;;;;;5067949;28;20437;-75
2022/05/24 04:00:56;;;;;;;0.73;0.70;;;;;;;;;;5053192;28;20443;-76
2022/05/24 04:03:23;;;;;;;0.80;0.80;;;;;;;;;;5050792;28;20444;-76
2022/05/24 04:05:50;;;;;;;1.03;0.93;;;;;;;;;;5034148;28;21025;-77
2022/05/24 04:08:18;;;;;;;0.73;0.73;;;;;;;;;;5050553;28;20438;-76
2022/05/24 04:10:46;;;;;;;0.70;0.70;;;;;;;;;;5034269;28;20481;-76
2022/05/24 04:13:14;;;;;;;0.70;0.60;;;;;;;;;;5034468;28;20959;-76
2022/05/24 04:15:42;;;;;;;0.70;0.70;;;;;;;;;;5051265;28;20699;-78
2022/05/24 04:18:11;;;;;;;0.70;0.60;;;;;;;;;;5037612;28;21018;-75
2022/05/24 04:20:38;;;;;;;0.70;0.70;;;;;;;;;;5048495;28;20555;-76
2022/05/24 04:23:10;;;;;;;1.13;1.10;;;;;;;;;;5053282;28;20424;-75
2022/05/24 04:25:37;;;;;;;1.47;1.00;;;;;;;;;;5052552;28;20416;-79
2022/05/24 04:28:04;;;;;;;0.70;0.70;;;;;;;;;;5052545;28;20883;-73
2022/05/24 04:30:33;;;;;;;0.70;0.70;;;;;;;;;;5053976;28;20459;-76
2022/05/24 04:33:00;;;;;;;0.70;0.70;;;;;;;;;;5055968;28;20447;-72
2022/05/24 04:35:29;;;;;;;0.70;0.63;;;;;;;;;;5061728;28;20449;-74
2022/05/24 04:37:55;;;;;;;0.70;0.70;;;;;;;;;;5052140;28;20815;-73
2022/05/24 04:42:18;;;;;;;0.70;0.70;;;;;;;;;;5053579;28;21022;-71
2022/05/24 04:43:14;;;;;;;1.00;0.90;;;;;;;;;;5054219;28;20438;-73
2022/05/24 04:45:47;;;;;;;0.80;0.73;;;;;;;;;;5054818;28;20945;-71
2022/05/24 04:48:23;;;;;;;0.70;0.60;;;;;;;;;;5058375;28;20423;-71
2022/05/24 04:50:51;;;;;;;0.70;0.60;;;;;;;;;;5073619;28;20451;-72
2022/05/24 04:53:18;;;;;;;1.10;1.00;;;;;;;;;;5072455;28;20439;-71
2022/05/24 04:55:44;;;;;;;0.70;0.70;;;;;;;;;;5071918;28;20452;-71
2022/05/24 04:58:11;;;;;;;0.70;0.70;;;;;;;;;;5074889;28;20531;-72
2022/05/24 05:00:38;;;;;;;0.70;0.60;;;;;;;;;;5077349;28;20465;-72
2022/05/24 05:03:08;;;;;;;0.70;0.70;;;;;;;;;;5076059;28;20427;-72
2022/05/24 05:05:36;;;;;;;0.70;0.70;;;;;;;;;;5075960;28;20898;-71
2022/05/24 05:08:05;;;;;;;0.70;0.60;;;;;;;;;;5059503;28;20435;-71
2022/05/24 05:10:34;;;;;;;1.10;1.00;;;;;;;;;;5077493;28;20449;-71
2022/05/24 05:13:03;;;;;;;0.70;0.60;;;;;;;;;;5076861;28;20471;-72
2022/05/24 05:15:31;;;;;;;0.70;0.60;;;;;;;;;;5075922;28;20462;-71
2022/05/24 05:18:02;;;;;;;0.70;0.60;;;;;;;;;;5075189;28;20477;-72
2022/05/24 05:20:31;;;;;;;0.70;0.70;;;;;;;;;;5076245;28;20481;-71
2022/05/24 05:22:58;;;;;;;0.70;0.60;;;;;;;;;;5076273;28;20466;-71
2022/05/24 05:25:24;;;;;;;0.70;0.70;;;;;;;;;;5076796;28;20511;-72
2022/05/24 05:27:51;;;;;;;0.70;0.70;;;;;;;;;;5076738;28;20451;-71
2022/05/24 05:33:04;;;;;;;0.70;0.60;;;;;;;;;;5076962;28;20451;-71
2022/05/24 05:35:34;;;;;;;0.70;0.70;;;;;;;;;;5076328;28;20439;-71
2022/05/24 05:38:07;;;;;;;0.70;0.60;;;;;;;;;;5076721;28;20832;-70
2022/05/24 05:40:34;;;;;;;0.70;0.60;;;;;;;;;;5075232;28;20493;-72
2022/05/24 05:43:02;;;;;;;0.70;0.60;;;;;;;;;;5060794;28;20527;-69
2022/05/24 05:45:29;;;;;;;0.70;0.60;;;;;;;;;;5056378;28;20436;-70
2022/05/24 05:47:56;;;;;;;0.70;0.70;;;;;;;;;;5055045;28;20450;-70
2022/05/24 05:50:24;;;;;;;0.70;0.60;;;;;;;;;;5054541;28;20768;-72
2022/05/24 05:52:52;;;;;;;0.70;0.60;;;;;;;;;;5055007;28;20446;-72
2022/05/24 05:55:19;;;;;;;0.70;0.60;;;;;;;;;;5056311;28;20508;-71
2022/05/24 05:57:46;;;;;;;0.67;0.60;;;;;;;;;;5037748;28;20480;-71
2022/05/24 06:00:14;;;;;;;0.60;0.60;;;;;;;;;;5054329;28;20463;-72
2022/05/24 06:02:43;;;;;;;0.70;0.60;;;;;;;;;;5055164;28;20393;-71
2022/05/24 06:05:10;;;;;;;0.70;0.70;;;;;;;;;;5055786;28;20431;-71
2022/05/24 06:07:37;;;;;;;0.70;0.60;;;;;;;;;;5055220;28;20447;-72
2022/05/24 06:10:07;;;;;;;0.70;0.60;;;;;;;;;;5055513;28;20424;-71
2022/05/24 06:12:34;;;;;;;0.70;0.60;;;;;;;;;;5055632;28;20462;-71
2022/05/24 06:15:00;;;;;;;0.70;0.60;;;;;;;;;;5055077;28;20432;-72
2022/05/24 06:17:28;;;;;;;0.60;0.60;;;;;;;;;;5055987;28;20776;-72
2022/05/24 06:19:58;;;;;;;0.70;0.60;;;;;;;;;;5053772;28;20866;-71
2022/05/24 06:22:25;;;;;;;0.70;0.60;;;;;;;;;;5075266;28;20455;-72
2022/05/24 06:24:51;;;;;;;0.70;0.60;;;;;;;;;;5057230;28;20454;-71
2022/05/24 06:27:21;;;;;;;0.70;0.70;;;;;;;;;;5073239;28;20471;-71
2022/05/24 06:29:48;;;;;;;0.70;0.70;;;;;;;;;;5054925;28;20824;-72
2022/05/24 06:32:15;;;;;;;0.70;0.70;;;;;;;;;;5054748;28;20464;-71
2022/05/24 06:34:43;;;;;;;0.70;0.60;;;;;;;;;;5055604;28;20423;-71
2022/05/24 06:37:10;;;;;;;0.70;0.60;;;;;;;;;;5053823;28;20802;-71
2022/05/24 06:39:37;;;;;;;0.70;0.60;;;;;;;;;;5054847;28;20470;-71
2022/05/24 06:42:04;;;;;;;0.70;0.60;;;;;;;;;;5053800;28;20455;-70
2022/05/24 06:44:34;;;;;;;0.70;0.60;;;;;;;;;;5055274;28;20905;-71
2022/05/24 06:47:00;;;;;;;0.70;0.60;;;;;;;;;;5053878;28;20802;-70
2022/05/24 06:49:27;;;;;;;0.70;0.60;;;;;;;;;;5067111;28;20439;-70
2022/05/24 06:51:54;;;;;;;0.70;0.63;;;;;;;;;;5073596;28;20452;-71
2022/05/24 06:54:21;;;;;;;0.70;0.60;;;;;;;;;;5074874;28;20432;-70
2022/05/24 06:56:49;;;;;;;0.70;0.60;;;;;;;;;;5075334;28;20454;-71
2022/05/24 07:04:54;;;;;;;0.70;0.70;;;;;;;;;;5074243;28;20429;-70
2022/05/24 07:07:20;;;;;;;0.70;0.53;;;;;;;;;;5074941;28;20898;-71
2022/05/24 07:09:47;;;;;;;0.70;0.50;;;;;;;;;;5073602;28;20408;-70
2022/05/24 07:12:16;;;;;;;0.70;0.60;;;;;;;;;;5073690;28;20431;-71
2022/05/24 07:14:43;;;;;;;0.70;0.60;;;;;;;;;;5072843;28;21013;-71
2022/05/24 07:17:12;;;;;;;0.70;0.60;;;;;;;;;;5074060;28;20432;-70
2022/05/24 07:19:39;;;;;;;0.70;0.60;;;;;;;;;;5071305;28;20939;-72
2022/05/24 07:22:06;;;;;;;0.67;0.63;;;;;;;;;;5074435;28;20526;-72
2022/05/24 07:24:34;;;;;;;0.60;0.60;;;;;;;;;;5074323;28;20909;-70
2022/05/24 07:27:04;;;;;;;0.70;0.60;;;;;;;;;;5074874;28;20431;-70
2022/05/24 07:29:32;;;;;;;0.70;0.60;;;;;;;;;;5056046;28;20538;-71
2022/05/24 07:32:00;;;;;;;0.63;0.57;;;;;;;;;;5073996;28;20535;-70
2022/05/24 07:34:28;;;;;;;0.67;0.50;;;;;;;;;;5072812;28;20452;-72
2022/05/24 07:36:55;;;;;;;0.70;0.60;;;;;;;;;;5073485;28;20516;-69
2022/05/24 07:39:22;;;;;;;0.70;0.60;;;;;;;;;;5073525;28;20423;-71
2022/05/24 07:47:41;;;;;;;0.70;0.60;;;;;;;;;;5072266;28;20848;-72
2022/05/24 07:50:10;;;;;;;0.70;0.57;;;;;;;;;;5055919;28;20445;-72
2022/05/24 07:52:36;;;;;;;0.70;0.60;;;;;;;;;;5060276;28;20523;-70
2022/05/24 07:55:04;;;;;;;0.70;0.60;;;;;;;;;;5053152;28;20437;-69
2022/05/24 07:57:31;;;;;;;0.70;0.60;;;;;;;;;;5053174;28;20433;-70
2022/05/24 08:00:04;;;;;;;0.70;0.63;;;;;;;;;;5053216;28;20457;-72
2022/05/24 08:02:38;;;;;;;0.70;0.70;;;;;;;;;;5053742;28;20416;-72
2022/05/24 08:05:10;;;;;;;0.70;0.60;;;;;;;;;;5052738;28;20893;-71
2022/05/24 08:07:38;;;;;;;0.70;0.63;;;;;;;;;;5053264;28;20451;-71
2022/05/24 08:10:05;;;;;;;0.70;0.60;;;;;;;;;;5053027;28;20449;-72
2022/05/24 08:12:32;;;;;;;0.70;0.67;;;;;;;;;;5054253;28;20838;-72
2022/05/24 08:15:01;;;;;;;0.70;0.70;;;;;;;;;;5053783;28;21003;-71
2022/05/24 08:17:28;;;;;;;0.70;0.70;;;;;;;;;;5051846;28;20449;-72
2022/05/24 08:19:55;;;;;;;0.80;0.70;;;;;;;;;;5069135;28;20779;-71
2022/05/24 08:22:24;;;;;;;0.70;0.70;;;;;;;;;;5072022;28;20509;-71
2022/05/24 08:24:51;;;;;;;0.80;0.80;;;;;;;;;;5065210;28;20544;-71
2022/05/24 08:27:18;;;;;;;0.70;0.70;;;;;;;;;;5071758;28;20963;-73
2022/05/24 08:29:45;;;;;;;0.70;0.60;;;;;;;;;;5074594;28;20462;-72
2022/05/24 08:32:12;;;;;;;0.70;0.70;;;;;;;;;;5076202;28;20425;-70
2022/05/24 08:34:39;;;;;;;0.70;0.70;;;;;;;;;;5076442;28;20931;-72
2022/05/24 08:37:06;;;;;;;0.70;0.60;;;;;;;;;;5077211;28;20451;-73
2022/05/24 08:39:34;;;;;;;0.80;0.70;;;;;;;;;;5076552;28;20772;-72
2022/05/24 08:42:04;;;;;;;0.70;0.67;;;;;;;;;;5076112;28;20483;-73
2022/05/24 08:50:09;;;;;;;0.70;0.63;;;;;;;;;;5077128;28;20434;-70
2022/05/24 08:52:38;;;;;;;0.73;0.70;;;;;;;;;;5076859;28;20963;-70
2022/05/24 08:55:09;;;;;;;0.70;0.70;;;;;;;;;;5076876;28;20479;-73
2022/05/24 08:57:39;;;;;;;0.70;0.63;;;;;;;;;;5075619;28;20415;-72
2022/05/24 09:00:08;;;;;;;0.70;0.70;;;;;;;;;;5075199;28;20447;-73
2022/05/24 09:02:36;;;;;;;0.70;0.60;;;;;;;;;;5075613;28;20443;-72
2022/05/24 09:05:03;;;;;;;0.70;0.60;;;;;;;;;;5075636;28;20446;-73
2022/05/24 09:07:37;;;;;;;0.70;0.60;;;;;;;;;;5077448;28;20448;-75
2022/05/24 09:10:06;;;;;;;0.70;0.60;;;;;;;;;;5075015;28;20452;-74
2022/05/24 09:12:44;;;;;;;0.70;0.70;;;;;;;;;;5059209;28;20503;-73
2022/05/24 09:15:15;;;;;;;0.70;0.60;;;;;;;;;;5075490;28;20439;-72
2022/05/24 09:17:47;;;;;;;0.73;0.70;;;;;;;;;;5077261;28;20415;-74
2022/05/24 09:20:29;;;;;;;0.70;0.70;;;;;;;;;;5041149;28;20453;-75
2022/05/24 09:22:57;;;;;;;0.87;0.87;;;;;;;;;;5055307;28;20456;-74
2022/05/24 09:25:24;;;;;;;0.70;0.70;;;;;;;;;;5038781;28;20438;-72
2022/05/24 09:27:53;;;;;;;0.70;0.60;;;;;;;;;;5056296;28;20429;-73
2022/05/24 09:30:23;;;;;;;0.70;0.60;;;;;;;;;;5056597;28;20979;-73
2022/05/24 09:32:50;;;;;;;0.70;0.60;;;;;;;;;;5038728;28;20433;-73
2022/05/24 09:35:22;;;;;;;0.77;0.70;;;;;;;;;;5054895;28;20492;-71
2022/05/24 09:38:08;;;;;;;0.70;0.70;;;;;;;;;;5056428;28;20541;-74
2022/05/24 09:40:53;;;;;;;0.70;0.70;;;;;;;;;;5038523;28;20986;-72
2022/05/24 09:43:26;;;;;;;0.80;0.70;;;;;;;;;;5054069;28;20456;-73
2022/05/24 09:45:59;;;;;;;0.70;0.67;;;;;;;;;;5038572;28;20432;-73
2022/05/24 09:48:29;;;;;;;0.70;0.70;;;;;;;;;;5060216;28;20441;-73
2022/05/24 09:50:57;;;;;;;0.70;0.70;;;;;;;;;;5058232;28;20485;-73
2022/05/24 09:53:26;;;;;;;0.80;0.80;;;;;;;;;;5074715;28;20863;-72
2022/05/24 09:55:59;;;;;;;0.70;0.70;;;;;;;;;;5058655;28;20452;-74
2022/05/24 09:58:30;;;;;;;0.77;0.70;;;;;;;;;;5067330;28;20975;-73
2022/05/24 10:00:59;;;;;;;0.80;0.70;;;;;;;;;;5038378;28;21020;-73
2022/05/24 10:03:29;;;;;;;0.70;0.70;;;;;;;;;;5038128;28;20788;-74
2022/05/24 10:05:58;;;;;;;0.77;0.70;;;;;;;;;;5054562;28;20470;-73
2022/05/24 10:08:26;;;;;;;0.80;0.70;;;;;;;;;;5055304;28;21058;-73
2022/05/24 10:10:56;;;;;;;0.80;0.70;;;;;;;;;;5054357;28;20873;-74
2022/05/24 10:13:33;;;;;;;0.70;0.60;;;;;;;;;;5055940;28;20425;-73
2022/05/24 10:16:04;;;;;;;0.70;0.60;;;;;;;;;;5059018;28;20449;-74
2022/05/24 10:18:52;;;;;;;0.70;0.60;;;;;;;;;;5050832;28;20449;-73
2022/05/24 10:21:22;;;;;;;0.70;0.60;;;;;;;;;;5055373;28;20451;-73
2022/05/24 10:23:53;;;;;;;0.70;0.60;;;;;;;;;;5055947;28;20429;-73
2022/05/24 10:26:26;;;;;;;0.70;0.60;;;;;;;;;;5054653;28;20444;-72
2022/05/24 10:28:58;;;;;;;0.80;0.70;;;;;;;;;;5054493;28;20426;-73
2022/05/24 10:31:35;;;;;;;0.80;0.70;;;;;;;;;;5054151;28;20427;-74
2022/05/24 10:39:46;;;;;;;0.80;0.80;;;;;;;;;;5056091;28;20420;-74
2022/05/24 10:42:20;;;;;;;0.80;0.70;;;;;;;;;;5054165;28;20470;-74
2022/05/24 10:44:50;;;;;;;0.80;0.70;;;;;;;;;;5054343;28;20422;-73
2022/05/24 10:47:22;;;;;;;0.70;0.70;;;;;;;;;;5070470;28;20470;-75
2022/05/24 10:49:51;;;;;;;0.70;0.60;;;;;;;;;;5066986;28;20485;-74
2022/05/24 10:52:23;;;;;;;0.80;0.70;;;;;;;;;;5056090;28;20415;-74
2022/05/24 10:54:55;;;;;;;0.70;0.60;;;;;;;;;;5055638;28;20485;-74
2022/05/24 10:57:24;;;;;;;0.70;0.67;;;;;;;;;;5054747;28;20505;-74
2022/05/24 10:59:58;;;;;;;0.70;0.60;;;;;;;;;;5056301;28;20387;-73
2022/05/24 11:02:30;;;;;;;0.70;0.67;;;;;;;;;;5056114;28;20488;-75
2022/05/24 11:05:00;;;;;;;0.70;0.60;;;;;;;;;;5054904;28;20422;-73
2022/05/24 11:07:30;;;;;;;0.70;0.67;;;;;;;;;;5066185;28;21010;-74
2022/05/24 11:10:05;;;;;;;0.70;0.60;;;;;;;;;;5053972;28;20980;-74
2022/05/24 11:12:35;;;;;;;0.80;0.70;;;;;;;;;;5055823;28;20508;-74
2022/05/24 11:15:05;;;;;;;0.80;0.80;;;;;;;;;;5053504;28;20508;-74
2022/05/24 11:17:32;;;;;;;0.80;0.60;;;;;;;;;;5075238;28;20415;-74
2022/05/24 11:19:59;;;;;;;0.80;0.70;;;;;;;;;;5059784;28;20414;-74
2022/05/24 11:22:29;;;;;;;0.70;0.67;;;;;;;;;;5057303;28;20434;-74
2022/05/24 11:25:01;;;;;;;0.70;0.60;;;;;;;;;;5054251;28;20416;-74
2022/05/24 11:27:30;;;;;;;0.80;0.70;;;;;;;;;;5054189;28;20432;-74
2022/05/24 11:29:59;;;;;;;0.70;0.70;;;;;;;;;;5055944;28;20447;-74
2022/05/24 11:32:33;;;;;;;0.73;0.70;;;;;;;;;;5055351;28;20432;-74
2022/05/24 11:35:03;;;;;;;0.70;0.70;;;;;;;;;;5037386;28;20432;-74
2022/05/24 11:37:31;;;;;;;0.80;0.80;;;;;;;;;;5036846;28;20456;-75
2022/05/24 11:40:12;;;;;;;0.70;0.70;;;;;;;;;;5056629;28;20434;-74
2022/05/24 11:42:44;;;;;;;0.80;0.70;;;;;;;;;;5057936;28;20589;-74
2022/05/24 11:45:31;;;;;;;0.80;0.70;;;;;;;;;;5057453;28;20379;-73
2022/05/24 11:48:00;;;;;;;0.70;0.60;;;;;;;;;;5074507;28;20430;-74
2022/05/24 11:50:39;;;;;;;0.80;0.70;;;;;;;;;;5055029;28;20821;-74
2022/05/24 11:53:07;;;;;;;0.70;0.70;;;;;;;;;;5058100;28;20911;-75
2022/05/24 11:55:44;;;;;;;0.70;0.60;;;;;;;;;;5058352;28;20431;-76
2022/05/24 11:58:22;;;;;;;0.70;0.60;;;;;;;;;;5061226;28;20403;-76
2022/05/24 12:00:55;;;;;;;0.80;0.70;;;;;;;;;;5056366;28;20807;-74
2022/05/24 12:09:08;;;;;;;0.80;0.70;;;;;;;;;;5056498;28;20458;-74
2022/05/24 12:11:36;;;;;;;0.80;0.70;;;;;;;;;;5057882;28;20391;-75
2022/05/24 12:14:11;;;;;;;0.70;0.70;;;;;;;;;;5065064;28;20438;-74
2022/05/24 12:16:42;;;;;;;0.70;0.60;;;;;;;;;;5066604;28;20443;-76
2022/05/24 12:19:34;;;;;;;0.70;0.60;;;;;;;;;;5066412;28;20434;-75
2022/05/24 12:22:06;;;;;;;0.70;0.60;;;;;;;;;;5059468;28;20467;-75
2022/05/24 12:24:51;;;;;;;0.80;0.70;;;;;;;;;;5078960;28;20779;-75
2022/05/24 12:27:19;;;;;;;0.77;0.67;;;;;;;;;;5082909;28;20431;-74
2022/05/24 12:29:48;;;;;;;0.70;0.60;;;;;;;;;;5060756;28;20442;-76
2022/05/24 12:32:18;;;;;;;0.80;0.70;;;;;;;;;;5083472;28;20418;-74
2022/05/24 12:34:44;;;;;;;0.70;0.60;;;;;;;;;;5066198;28;20543;-74
2022/05/24 12:37:19;;;;;;;0.70;0.60;;;;;;;;;;5058143;28;20467;-75
2022/05/24 12:40:09;;;;;;;0.70;0.70;;;;;;;;;;5080007;28;20437;-74
2022/05/24 12:42:43;;;;;;;0.70;0.60;;;;;;;;;;5076055;28;20489;-73
2022/05/24 12:45:12;;;;;;;0.80;0.70;;;;;;;;;;5078706;28;20484;-75
2022/05/24 12:47:39;;;;;;;0.70;0.60;;;;;;;;;;5078206;28;20443;-73
2022/05/24 12:50:06;;;;;;;0.70;0.60;;;;;;;;;;5076458;28;20439;-74
2022/05/24 12:52:40;;;;;;;0.70;0.60;;;;;;;;;;5080381;28;20447;-72
2022/05/24 12:55:08;;;;;;;0.80;0.70;;;;;;;;;;5079620;28;20427;-76
2022/05/24 12:57:37;;;;;;;0.70;0.60;;;;;;;;;;5080785;28;20461;-72
2022/05/24 13:00:08;;;;;;;0.70;0.60;;;;;;;;;;5077562;28;20538;-74
2022/05/24 13:02:37;;;;;;;0.70;0.60;;;;;;;;;;5080674;28;20463;-74
2022/05/24 13:05:11;;;;;;;0.70;0.60;;;;;;;;;;5079631;28;20518;-74
2022/05/24 13:07:41;;;;;;;0.70;0.60;;;;;;;;;;5077148;28;20848;-75
2022/05/24 13:10:26;;;;;;;0.70;0.60;;;;;;;;;;5076938;28;20435;-75
2022/05/24 13:12:54;;;;;;;0.80;0.60;;;;;;;;;;5077606;28;20415;-75
2022/05/24 13:15:22;;;;;;;0.70;0.60;;;;;;;;;;5077977;28;20443;-76
2022/05/24 13:17:52;;;;;;;0.70;0.60;;;;;;;;;;5077766;28;20469;-74
2022/05/24 13:20:29;;;;;;;0.77;0.70;;;;;;;;;;5044324;28;20456;-75
2022/05/24 13:23:00;;;;;;;0.77;0.67;;;;;;;;;;5058517;28;20487;-74
2022/05/24 13:25:28;;;;;;;0.70;0.60;;;;;;;;;;5041037;28;20547;-73
2022/05/24 13:27:56;;;;;;;0.80;0.70;;;;;;;;;;5058366;28;20539;-74
2022/05/24 13:33:33;;;;;;;0.70;0.60;;;;;;;;;;5058461;28;20420;-73
2022/05/24 13:36:00;;;;;;;0.70;0.60;;;;;;;;;;5055648;28;20458;-74
2022/05/24 13:38:29;;;;;;;0.80;0.60;;;;;;;;;;5056763;28;20858;-74
2022/05/24 13:40:57;;;;;;;0.70;0.60;;;;;;;;;;5058890;28;20436;-74
2022/05/24 13:43:35;;;;;;;0.70;0.60;;;;;;;;;;5056417;28;20514;-74
2022/05/24 13:46:07;;;;;;;0.70;0.60;;;;;;;;;;5059786;28;20424;-73
2022/05/24 13:48:42;;;;;;;0.70;0.60;;;;;;;;;;5062503;28;20458;-74
2022/05/24 13:51:16;;;;;;;0.70;0.50;;;;;;;;;;5059746;28;20542;-74
2022/05/24 13:53:46;;;;;;;0.70;0.60;;;;;;;;;;5076566;28;20902;-75
2022/05/24 13:56:19;;;;;;;0.70;0.50;;;;;;;;;;5077212;28;20416;-74
2022/05/24 13:58:49;;;;;;;0.70;0.50;;;;;;;;;;5059557;28;20446;-77
2022/05/24 14:01:25;;;;;;;0.70;0.50;;;;;;;;;;5075889;28;20422;-74
2022/05/24 14:03:54;;;;;;;0.70;0.50;;;;;;;;;;5073491;28;20489;-75
2022/05/24 14:06:22;;;;;;;0.70;0.60;;;;;;;;;;5056954;28;20460;-75
2022/05/24 14:08:51;;;;;;;0.70;0.60;;;;;;;;;;5059096;28;20860;-74
2022/05/24 14:11:20;;;;;;;0.70;0.60;;;;;;;;;;5051371;28;20443;-74
2022/05/24 14:13:47;;;;;;;0.70;0.60;;;;;;;;;;5039994;28;20795;-73
2022/05/24 14:16:14;;;;;;;0.70;0.60;;;;;;;;;;5050114;28;20994;-74
2022/05/24 14:18:43;;;;;;;0.80;0.70;;;;;;;;;;5057979;28;20516;-73
2022/05/24 14:21:11;;;;;;;0.70;0.60;;;;;;;;;;5054709;28;20558;-76
2022/05/24 14:23:37;;;;;;;0.70;0.60;;;;;;;;;;5067782;28;20487;-74
2022/05/24 14:26:06;;;;;;;0.70;0.60;;;;;;;;;;5066211;28;20474;-74
2022/05/24 14:28:34;;;;;;;0.70;0.63;;;;;;;;;;5070929;28;20434;-73
2022/05/24 14:31:02;;;;;;;0.70;0.60;;;;;;;;;;5061262;28;20485;-74
2022/05/24 14:33:30;;;;;;;0.70;0.60;;;;;;;;;;5067071;28;20447;-72
2022/05/24 14:35:57;;;;;;;0.70;0.60;;;;;;;;;;5051947;28;21039;-74
2022/05/24 14:38:24;;;;;;;0.70;0.60;;;;;;;;;;5044982;28;20464;-72
2022/05/24 14:40:51;;;;;;;0.70;0.60;;;;;;;;;;5055542;28;20478;-74
2022/05/24 14:43:21;;;;;;;0.70;0.60;;;;;;;;;;5039650;28;20460;-74
2022/05/24 14:45:48;;;;;;;0.70;0.60;;;;;;;;;;5053804;28;20462;-73
2022/05/24 14:48:15;;;;;;;0.70;0.60;;;;;;;;;;5055995;28;20460;-72
2022/05/24 14:50:42;;;;;;;0.70;0.60;;;;;;;;;;5064220;28;20459;-73
2022/05/24 14:53:10;;;;;;;0.80;0.60;;;;;;;;;;5064979;28;20435;-73
2022/05/24 14:55:36;;;;;;;0.77;0.70;;;;;;;;;;5057691;28;20481;-74
2022/05/24 14:58:05;;;;;;;0.80;0.70;;;;;;;;;;5075678;28;20415;-74
2022/05/24 15:00:35;;;;;;;0.70;0.60;;;;;;;;;;5073799;28;20454;-72
2022/05/24 15:03:07;;;;;;;0.80;0.67;;;;;;;;;;5065612;28;20463;-73
2022/05/24 15:05:34;;;;;;;0.80;0.70;;;;;;;;;;5053992;28;20430;-73
2022/05/24 15:16:41;;;;;;;0.80;0.70;;;;;;;;;;5080232;28;20925;-74
2022/05/24 15:19:09;;;;;;;0.80;0.60;;;;;;;;;;5077753;28;20931;-75
2022/05/24 15:21:37;;;;;;;0.80;0.70;;;;;;;;;;5059032;28;20475;-73
2022/05/24 15:24:07;;;;;;;0.80;0.60;;;;;;;;;;5075862;28;20455;-76
2022/05/24 15:26:35;;;;;;;0.80;0.70;;;;;;;;;;5075380;28;20427;-73
2022/05/24 15:29:03;;;;;;;0.70;0.60;;;;;;;;;;5057260;28;20477;-74
2022/05/24 15:31:30;;;;;;;0.80;0.60;;;;;;;;;;5058465;28;20447;-74
2022/05/24 15:34:01;;;;;;;0.80;0.70;;;;;;;;;;5058858;28;20483;-74
2022/05/24 15:36:28;;;;;;;0.80;0.70;;;;;;;;;;5056804;28;20566;-74
2022/05/24 15:38:55;;;;;;;0.80;0.80;;;;;;;;;;5074685;28;20465;-74
2022/05/24 15:41:24;;;;;;;0.80;0.60;;;;;;;;;;5039730;28;20440;-74
2022/05/24 15:43:52;;;;;;;0.80;0.80;;;;;;;;;;5058945;28;20442;-74
2022/05/24 15:46:21;;;;;;;0.70;0.67;;;;;;;;;;5055960;28;20464;-74
2022/05/24 15:48:50;;;;;;;0.80;0.60;;;;;;;;;;5055435;28;20449;-74
2022/05/24 15:51:19;;;;;;;0.70;0.60;;;;;;;;;;5053294;28;20987;-74